Huvudsida
METAR-TAF:

METAR-TAF

Flygplatser :

Ouagadougou Airport

Ouagadougou, Burkina Faso

latitud: 12-21N, longitud: 001-31W, höjd: 316 m

Aktuellt väderrapport

Denna rapport gjordes för 2 timmar och 40 minuter sedan, klockan 10:00 UTC
Vind 5 kt från väst, varierande mellan syd/sydväst och nord
Temperatur 34°C
Fuktighet 47%
Tryck 1014 hPa
Sikt 10 km eller mer
Inga moln under 1 500 m eller inga cumulonimbus

METAR: DFFD 251000Z 27005KT 210V350 CAVOK 34/21 Q1014 NOSIG

Tid: 12:40 (12:40 UTC)

Väderprognos

Denna rapport gjordes för 1 timme och 40 minuter sedan, klockan 11:00 UTC
Prognos gäller från 25 kl. 12 UTC till 26 kl. 18 UTC
Vind 8 kt från väst/sydväst
Sikt 10 km eller mer
Få moln på en höjd av 2600 ft
Temporärt
från 25 kl. 16 UTC till 26 kl. 02 UTC
Sikt: 4000 m
Spridda moln på en höjd av 2600 ft
Få moln på en höjd av 4000 ft, Cumulonimbus.
åska, regn

TAF: DFFD 251100Z 2512/2618 24008KT 9999 FEW026 TEMPO 2516/2602 4000 TSRA SCT026 FEW040CB

Aktuella väderrapporter och prognoser från 4000 flygplatser (METAR- och TAF-rapporter).

De tillgängliga stationerna syns som gula och röda prickar på kartan.

För musen över prickarna för att se namnen på stationerna.

Klicka sedan för att få väderrapporter och prognoser.

För att ändra kartan: Klicka på de gröna knapparna med ett svart kors på för att zooma in; den gröna knappen med ett streck på för att zooma ut; eller på de gröna pilarna för angränsande kartor.


METAR-TAF: